sensor_id;sensor_type;location;lat;lon;timestamp;temperature;humidity
71175;DHT22;58876;51.994;4.472;2024-02-16T00:01:02;13.85;73.73
71175;DHT22;58876;51.994;4.472;2024-02-16T00:03:28;13.89;73.62
71175;DHT22;58876;51.994;4.472;2024-02-16T00:05:56;13.96;73.40
71175;DHT22;58876;51.994;4.472;2024-02-16T00:08:22;13.78;73.87
71175;DHT22;58876;51.994;4.472;2024-02-16T00:10:48;13.85;73.66
71175;DHT22;58876;51.994;4.472;2024-02-16T00:13:14;13.81;73.82
71175;DHT22;58876;51.994;4.472;2024-02-16T00:15:39;13.82;73.75
71175;DHT22;58876;51.994;4.472;2024-02-16T00:18:06;13.79;73.75
71175;DHT22;58876;51.994;4.472;2024-02-16T00:20:31;13.64;74.10
71175;DHT22;58876;51.994;4.472;2024-02-16T00:22:57;13.61;74.09
71175;DHT22;58876;51.994;4.472;2024-02-16T00:25:26;13.68;74.02
71175;DHT22;58876;51.994;4.472;2024-02-16T00:27:52;13.74;73.80
71175;DHT22;58876;51.994;4.472;2024-02-16T00:30:19;13.67;73.80
71175;DHT22;58876;51.994;4.472;2024-02-16T00:32:44;13.62;73.98
71175;DHT22;58876;51.994;4.472;2024-02-16T00:35:14;13.95;73.03
71175;DHT22;58876;51.994;4.472;2024-02-16T00:37:41;14.10;72.35
71175;DHT22;58876;51.994;4.472;2024-02-16T00:40:07;13.98;72.90
71175;DHT22;58876;51.994;4.472;2024-02-16T00:42:34;14.22;72.00
71175;DHT22;58876;51.994;4.472;2024-02-16T00:44:59;14.32;71.72
71175;DHT22;58876;51.994;4.472;2024-02-16T00:47:29;14.23;71.78
71175;DHT22;58876;51.994;4.472;2024-02-16T00:49:54;14.23;71.91
71175;DHT22;58876;51.994;4.472;2024-02-16T00:52:20;14.26;71.34
71175;DHT22;58876;51.994;4.472;2024-02-16T00:54:46;14.09;71.67
71175;DHT22;58876;51.994;4.472;2024-02-16T00:57:14;13.92;72.20
71175;DHT22;58876;51.994;4.472;2024-02-16T00:59:40;13.96;72.48
71175;DHT22;58876;51.994;4.472;2024-02-16T01:02:05;14.02;72.16
71175;DHT22;58876;51.994;4.472;2024-02-16T01:04:32;14.01;72.02
71175;DHT22;58876;51.994;4.472;2024-02-16T01:06:58;14.04;71.81
71175;DHT22;58876;51.994;4.472;2024-02-16T01:09:24;14.08;71.79
71175;DHT22;58876;51.994;4.472;2024-02-16T01:11:50;13.98;71.78
71175;DHT22;58876;51.994;4.472;2024-02-16T01:14:15;13.90;72.22
71175;DHT22;58876;51.994;4.472;2024-02-16T01:16:41;14.01;71.88
71175;DHT22;58876;51.994;4.472;2024-02-16T01:19:06;14.05;71.70
71175;DHT22;58876;51.994;4.472;2024-02-16T01:21:33;14.06;71.55
71175;DHT22;58876;51.994;4.472;2024-02-16T01:23:58;14.09;71.42
71175;DHT22;58876;51.994;4.472;2024-02-16T01:26:29;13.96;71.68
71175;DHT22;58876;51.994;4.472;2024-02-16T01:28:54;13.96;71.77
71175;DHT22;58876;51.994;4.472;2024-02-16T01:31:23;13.90;71.97
71175;DHT22;58876;51.994;4.472;2024-02-16T01:33:48;14.01;71.42
71175;DHT22;58876;51.994;4.472;2024-02-16T01:36:14;14.04;71.44
71175;DHT22;58876;51.994;4.472;2024-02-16T01:38:39;13.99;71.53
71175;DHT22;58876;51.994;4.472;2024-02-16T01:41:05;13.95;71.72
71175;DHT22;58876;51.994;4.472;2024-02-16T01:43:32;13.96;71.62
71175;DHT22;58876;51.994;4.472;2024-02-16T01:45:58;13.95;71.64
71175;DHT22;58876;51.994;4.472;2024-02-16T01:48:25;13.92;71.88
71175;DHT22;58876;51.994;4.472;2024-02-16T01:50:52;13.95;71.71
71175;DHT22;58876;51.994;4.472;2024-02-16T01:53:18;13.95;71.56
71175;DHT22;58876;51.994;4.472;2024-02-16T01:55:47;14.04;71.18
71175;DHT22;58876;51.994;4.472;2024-02-16T01:58:13;13.94;71.63
71175;DHT22;58876;51.994;4.472;2024-02-16T02:00:40;13.83;71.87
71175;DHT22;58876;51.994;4.472;2024-02-16T02:03:07;13.90;71.77
71175;DHT22;58876;51.994;4.472;2024-02-16T02:05:32;13.82;71.83
71175;DHT22;58876;51.994;4.472;2024-02-16T02:07:58;13.71;72.38
71175;DHT22;58876;51.994;4.472;2024-02-16T02:10:24;13.68;72.48
71175;DHT22;58876;51.994;4.472;2024-02-16T02:12:50;13.67;72.54
71175;DHT22;58876;51.994;4.472;2024-02-16T02:15:15;13.67;72.46
71175;DHT22;58876;51.994;4.472;2024-02-16T02:17:41;13.62;72.74
71175;DHT22;58876;51.994;4.472;2024-02-16T02:20:07;13.55;72.88
71175;DHT22;58876;51.994;4.472;2024-02-16T02:22:38;13.55;72.79
71175;DHT22;58876;51.994;4.472;2024-02-16T02:25:04;13.48;72.83
71175;DHT22;58876;51.994;4.472;2024-02-16T02:27:30;13.36;73.51
71175;DHT22;58876;51.994;4.472;2024-02-16T02:29:56;13.41;73.47
71175;DHT22;58876;51.994;4.472;2024-02-16T02:32:23;13.43;73.23
71175;DHT22;58876;51.994;4.472;2024-02-16T02:34:48;13.33;73.55
71175;DHT22;58876;51.994;4.472;2024-02-16T02:37:14;13.30;73.58
71175;DHT22;58876;51.994;4.472;2024-02-16T02:39:39;13.36;73.63
71175;DHT22;58876;51.994;4.472;2024-02-16T02:42:05;13.31;73.62
71175;DHT22;58876;51.994;4.472;2024-02-16T02:44:32;13.33;73.53
71175;DHT22;58876;51.994;4.472;2024-02-16T02:47:00;13.34;73.30
71175;DHT22;58876;51.994;4.472;2024-02-16T02:49:26;13.41;73.27
71175;DHT22;58876;51.994;4.472;2024-02-16T02:51:52;13.23;73.63
71175;DHT22;58876;51.994;4.472;2024-02-16T02:54:17;13.21;73.45
71175;DHT22;58876;51.994;4.472;2024-02-16T02:56:43;13.24;73.52
71175;DHT22;58876;51.994;4.472;2024-02-16T02:59:08;13.18;73.71
71175;DHT22;58876;51.994;4.472;2024-02-16T03:01:36;13.21;73.51
71175;DHT22;58876;51.994;4.472;2024-02-16T03:04:02;13.21;73.70
71175;DHT22;58876;51.994;4.472;2024-02-16T03:06:31;13.23;73.46
71175;DHT22;58876;51.994;4.472;2024-02-16T03:08:57;13.27;73.27
71175;DHT22;58876;51.994;4.472;2024-02-16T03:11:22;13.27;73.35
71175;DHT22;58876;51.994;4.472;2024-02-16T03:13:47;13.34;73.27
71175;DHT22;58876;51.994;4.472;2024-02-16T03:16:13;13.28;73.09
71175;DHT22;58876;51.994;4.472;2024-02-16T03:18:39;13.18;73.55
71175;DHT22;58876;51.994;4.472;2024-02-16T03:21:05;13.23;73.50
71175;DHT22;58876;51.994;4.472;2024-02-16T03:23:30;13.20;73.44
71175;DHT22;58876;51.994;4.472;2024-02-16T03:25:56;13.24;73.47
71175;DHT22;58876;51.994;4.472;2024-02-16T03:28:21;13.75;71.95
71175;DHT22;58876;51.994;4.472;2024-02-16T03:30:47;13.78;71.37
71175;DHT22;58876;51.994;4.472;2024-02-16T03:33:12;13.75;71.47
71175;DHT22;58876;51.994;4.472;2024-02-16T03:35:39;13.78;71.36
71175;DHT22;58876;51.994;4.472;2024-02-16T03:38:05;13.65;71.83
71175;DHT22;58876;51.994;4.472;2024-02-16T03:40:32;13.65;71.84
71175;DHT22;58876;51.994;4.472;2024-02-16T03:42:58;13.61;72.01
71175;DHT22;58876;51.994;4.472;2024-02-16T03:45:24;13.65;71.71
71175;DHT22;58876;51.994;4.472;2024-02-16T03:47:52;13.67;71.89
71175;DHT22;58876;51.994;4.472;2024-02-16T03:50:19;13.65;71.86
71175;DHT22;58876;51.994;4.472;2024-02-16T03:52:45;13.57;72.21
71175;DHT22;58876;51.994;4.472;2024-02-16T03:55:10;13.59;72.03
71175;DHT22;58876;51.994;4.472;2024-02-16T03:57:37;13.59;71.86
71175;DHT22;58876;51.994;4.472;2024-02-16T04:00:03;13.61;71.88
71175;DHT22;58876;51.994;4.472;2024-02-16T04:02:31;13.46;72.34
71175;DHT22;58876;51.994;4.472;2024-02-16T04:04:56;13.46;72.52
71175;DHT22;58876;51.994;4.472;2024-02-16T04:07:22;13.46;72.49
71175;DHT22;58876;51.994;4.472;2024-02-16T04:09:47;13.44;72.73
71175;DHT22;58876;51.994;4.472;2024-02-16T04:12:13;13.50;72.42
71175;DHT22;58876;51.994;4.472;2024-02-16T04:14:38;13.43;72.38
71175;DHT22;58876;51.994;4.472;2024-02-16T04:17:04;13.55;72.24
71175;DHT22;58876;51.994;4.472;2024-02-16T04:19:30;13.21;72.93
71175;DHT22;58876;51.994;4.472;2024-02-16T04:21:55;13.62;72.18
71175;DHT22;58876;51.994;4.472;2024-02-16T04:24:21;13.64;72.14
71175;DHT22;58876;51.994;4.472;2024-02-16T04:26:46;13.68;72.04
71175;DHT22;58876;51.994;4.472;2024-02-16T04:29:12;13.51;72.30
71175;DHT22;58876;51.994;4.472;2024-02-16T04:31:41;13.58;72.48
71175;DHT22;58876;51.994;4.472;2024-02-16T04:34:08;13.20;73.19
71175;DHT22;58876;51.994;4.472;2024-02-16T04:36:34;13.04;74.22
71175;DHT22;58876;51.994;4.472;2024-02-16T04:39:00;13.54;72.83
71175;DHT22;58876;51.994;4.472;2024-02-16T04:41:25;13.50;72.53
71175;DHT22;58876;51.994;4.472;2024-02-16T04:43:51;13.51;72.97
71175;DHT22;58876;51.994;4.472;2024-02-16T04:46:17;13.65;72.26
71175;DHT22;58876;51.994;4.472;2024-02-16T04:48:43;13.71;72.17
71175;DHT22;58876;51.994;4.472;2024-02-16T04:51:08;13.03;74.09
71175;DHT22;58876;51.994;4.472;2024-02-16T04:53:34;12.80;75.37
71175;DHT22;58876;51.994;4.472;2024-02-16T04:56:02;12.82;75.37
71175;DHT22;58876;51.994;4.472;2024-02-16T04:58:28;12.73;75.61
71175;DHT22;58876;51.994;4.472;2024-02-16T05:00:56;12.72;75.70
71175;DHT22;58876;51.994;4.472;2024-02-16T05:03:22;12.80;75.59
71175;DHT22;58876;51.994;4.472;2024-02-16T05:05:47;12.78;75.54
71175;DHT22;58876;51.994;4.472;2024-02-16T05:08:13;12.69;76.34
71175;DHT22;58876;51.994;4.472;2024-02-16T05:10:39;12.65;76.11
71175;DHT22;58876;51.994;4.472;2024-02-16T05:13:04;12.72;76.23
71175;DHT22;58876;51.994;4.472;2024-02-16T05:15:30;12.72;76.21
71175;DHT22;58876;51.994;4.472;2024-02-16T05:17:56;12.76;76.08
71175;DHT22;58876;51.994;4.472;2024-02-16T05:20:23;12.73;76.44
71175;DHT22;58876;51.994;4.472;2024-02-16T05:22:49;12.79;76.13
71175;DHT22;58876;51.994;4.472;2024-02-16T05:25:15;12.70;76.49
71175;DHT22;58876;51.994;4.472;2024-02-16T05:27:46;12.69;76.70
71175;DHT22;58876;51.994;4.472;2024-02-16T05:30:15;12.75;76.69
71175;DHT22;58876;51.994;4.472;2024-02-16T05:32:44;12.80;76.51
71175;DHT22;58876;51.994;4.472;2024-02-16T05:35:13;12.90;76.09
71175;DHT22;58876;51.994;4.472;2024-02-16T05:37:44;12.97;76.19
71175;DHT22;58876;51.994;4.472;2024-02-16T05:40:11;13.00;76.05
71175;DHT22;58876;51.994;4.472;2024-02-16T05:42:58;12.90;76.14
71175;DHT22;58876;51.994;4.472;2024-02-16T05:45:24;12.97;76.23
71175;DHT22;58876;51.994;4.472;2024-02-16T05:47:51;13.03;76.12
71175;DHT22;58876;51.994;4.472;2024-02-16T05:50:17;13.10;76.15
71175;DHT22;58876;51.994;4.472;2024-02-16T05:52:43;13.02;76.00
71175;DHT22;58876;51.994;4.472;2024-02-16T05:55:10;13.07;76.18
71175;DHT22;58876;51.994;4.472;2024-02-16T05:57:37;13.00;76.29
71175;DHT22;58876;51.994;4.472;2024-02-16T06:00:07;13.02;76.52
71175;DHT22;58876;51.994;4.472;2024-02-16T06:02:34;13.06;76.31
71175;DHT22;58876;51.994;4.472;2024-02-16T06:05:03;13.09;76.57
71175;DHT22;58876;51.994;4.472;2024-02-16T06:07:32;13.16;76.25
71175;DHT22;58876;51.994;4.472;2024-02-16T06:10:03;13.13;76.68
71175;DHT22;58876;51.994;4.472;2024-02-16T06:12:32;13.10;76.65
71175;DHT22;58876;51.994;4.472;2024-02-16T06:14:58;13.11;76.76
71175;DHT22;58876;51.994;4.472;2024-02-16T06:17:24;13.18;76.52
71175;DHT22;58876;51.994;4.472;2024-02-16T06:19:49;13.27;76.40
71175;DHT22;58876;51.994;4.472;2024-02-16T06:22:15;13.28;76.63
71175;DHT22;58876;51.994;4.472;2024-02-16T06:24:40;13.30;76.54
71175;DHT22;58876;51.994;4.472;2024-02-16T06:27:06;13.33;76.84
71175;DHT22;58876;51.994;4.472;2024-02-16T06:29:34;13.33;76.84
71175;DHT22;58876;51.994;4.472;2024-02-16T06:32:00;13.38;76.44
71175;DHT22;58876;51.994;4.472;2024-02-16T06:34:27;13.46;76.47
71175;DHT22;58876;51.994;4.472;2024-02-16T06:36:53;13.54;76.33
71175;DHT22;58876;51.994;4.472;2024-02-16T06:39:18;13.47;76.35
71175;DHT22;58876;51.994;4.472;2024-02-16T06:41:47;13.54;76.27
71175;DHT22;58876;51.994;4.472;2024-02-16T06:44:13;13.57;76.25
71175;DHT22;58876;51.994;4.472;2024-02-16T06:46:40;13.57;76.31
71175;DHT22;58876;51.994;4.472;2024-02-16T06:49:06;13.59;76.26
71175;DHT22;58876;51.994;4.472;2024-02-16T06:51:31;13.55;76.39
71175;DHT22;58876;51.994;4.472;2024-02-16T06:53:57;13.48;76.83
71175;DHT22;58876;51.994;4.472;2024-02-16T06:56:22;13.62;76.60
71175;DHT22;58876;51.994;4.472;2024-02-16T06:58:51;13.69;76.20
71175;DHT22;58876;51.994;4.472;2024-02-16T07:01:17;13.67;76.28
71175;DHT22;58876;51.994;4.472;2024-02-16T07:03:51;13.68;76.36
71175;DHT22;58876;51.994;4.472;2024-02-16T07:06:16;13.62;76.49
71175;DHT22;58876;51.994;4.472;2024-02-16T07:08:44;13.62;76.78
71175;DHT22;58876;51.994;4.472;2024-02-16T07:11:10;13.64;76.45
71175;DHT22;58876;51.994;4.472;2024-02-16T07:13:39;13.68;76.61
71175;DHT22;58876;51.994;4.472;2024-02-16T07:16:06;13.68;76.53
71175;DHT22;58876;51.994;4.472;2024-02-16T07:18:35;13.61;76.98
71175;DHT22;58876;51.994;4.472;2024-02-16T07:21:01;13.69;76.85
71175;DHT22;58876;51.994;4.472;2024-02-16T07:23:27;13.62;77.00
71175;DHT22;58876;51.994;4.472;2024-02-16T07:25:54;13.62;76.94
71175;DHT22;58876;51.994;4.472;2024-02-16T07:28:23;13.59;77.19
71175;DHT22;58876;51.994;4.472;2024-02-16T07:30:50;13.64;76.89
71175;DHT22;58876;51.994;4.472;2024-02-16T07:33:16;13.64;76.96
71175;DHT22;58876;51.994;4.472;2024-02-16T07:35:45;13.59;77.10
71175;DHT22;58876;51.994;4.472;2024-02-16T07:38:10;13.59;77.27
71175;DHT22;58876;51.994;4.472;2024-02-16T07:40:36;13.61;77.34
71175;DHT22;58876;51.994;4.472;2024-02-16T07:43:02;13.62;77.29
71175;DHT22;58876;51.994;4.472;2024-02-16T07:45:28;13.64;77.29
71175;DHT22;58876;51.994;4.472;2024-02-16T07:47:54;13.64;77.47
71175;DHT22;58876;51.994;4.472;2024-02-16T07:50:23;13.67;77.26
71175;DHT22;58876;51.994;4.472;2024-02-16T07:52:51;13.68;77.23
71175;DHT22;58876;51.994;4.472;2024-02-16T07:55:17;13.72;77.42
71175;DHT22;58876;51.994;4.472;2024-02-16T07:57:44;13.76;77.04
71175;DHT22;58876;51.994;4.472;2024-02-16T08:00:10;13.74;77.18
71175;DHT22;58876;51.994;4.472;2024-02-16T08:02:36;13.65;77.54
71175;DHT22;58876;51.994;4.472;2024-02-16T08:05:02;13.68;77.45
71175;DHT22;58876;51.994;4.472;2024-02-16T08:07:31;13.72;77.37
71175;DHT22;58876;51.994;4.472;2024-02-16T08:09:57;13.72;77.47
71175;DHT22;58876;51.994;4.472;2024-02-16T08:12:22;13.76;77.56
71175;DHT22;58876;51.994;4.472;2024-02-16T08:14:50;13.76;77.29
71175;DHT22;58876;51.994;4.472;2024-02-16T08:17:16;13.67;77.85
71175;DHT22;58876;51.994;4.472;2024-02-16T08:19:41;13.95;77.33
71175;DHT22;58876;51.994;4.472;2024-02-16T08:22:08;13.99;76.89
71175;DHT22;58876;51.994;4.472;2024-02-16T08:24:37;13.99;76.81
71175;DHT22;58876;51.994;4.472;2024-02-16T08:27:04;13.81;77.65
71175;DHT22;58876;51.994;4.472;2024-02-16T08:29:32;13.57;78.36
71175;DHT22;58876;51.994;4.472;2024-02-16T08:32:03;13.74;78.68
71175;DHT22;58876;51.994;4.472;2024-02-16T08:34:29;13.53;79.54
71175;DHT22;58876;51.994;4.472;2024-02-16T08:36:54;13.54;80.01
71175;DHT22;58876;51.994;4.472;2024-02-16T08:39:20;13.48;80.23
71175;DHT22;58876;51.994;4.472;2024-02-16T08:41:46;13.41;80.66
71175;DHT22;58876;51.994;4.472;2024-02-16T08:44:14;13.37;81.02
71175;DHT22;58876;51.994;4.472;2024-02-16T08:46:40;13.34;81.04
71175;DHT22;58876;51.994;4.472;2024-02-16T08:49:06;13.31;81.41
71175;DHT22;58876;51.994;4.472;2024-02-16T08:51:32;13.27;81.25
71175;DHT22;58876;51.994;4.472;2024-02-16T08:53:58;13.23;81.44
71175;DHT22;58876;51.994;4.472;2024-02-16T08:56:23;13.24;81.47
71175;DHT22;58876;51.994;4.472;2024-02-16T08:58:49;13.24;81.26
71175;DHT22;58876;51.994;4.472;2024-02-16T09:01:14;13.21;81.66
71175;DHT22;58876;51.994;4.472;2024-02-16T09:03:42;13.18;81.89
71175;DHT22;58876;51.994;4.472;2024-02-16T09:06:08;13.21;82.00
71175;DHT22;58876;51.994;4.472;2024-02-16T09:08:33;13.13;82.09
71175;DHT22;58876;51.994;4.472;2024-02-16T09:11:03;13.10;82.40
71175;DHT22;58876;51.994;4.472;2024-02-16T09:13:32;13.13;82.49
71175;DHT22;58876;51.994;4.472;2024-02-16T09:15:58;13.14;82.33
71175;DHT22;58876;51.994;4.472;2024-02-16T09:18:23;13.26;82.36
71175;DHT22;58876;51.994;4.472;2024-02-16T09:20:49;13.10;82.32
71175;DHT22;58876;51.994;4.472;2024-02-16T09:23:14;12.92;83.04
71175;DHT22;58876;51.994;4.472;2024-02-16T09:25:40;13.06;82.92
71175;DHT22;58876;51.994;4.472;2024-02-16T09:28:06;12.93;83.20
71175;DHT22;58876;51.994;4.472;2024-02-16T09:30:32;12.96;83.33
71175;DHT22;58876;51.994;4.472;2024-02-16T09:32:58;12.80;83.86
71175;DHT22;58876;51.994;4.472;2024-02-16T09:35:23;12.89;83.79
71175;DHT22;58876;51.994;4.472;2024-02-16T09:37:49;12.68;84.29
71175;DHT22;58876;51.994;4.472;2024-02-16T09:40:15;12.69;84.84
71175;DHT22;58876;51.994;4.472;2024-02-16T09:42:40;12.62;85.07
71175;DHT22;58876;51.994;4.472;2024-02-16T09:45:06;12.44;86.15
71175;DHT22;58876;51.994;4.472;2024-02-16T09:47:33;12.28;87.05
71175;DHT22;58876;51.994;4.472;2024-02-16T09:50:02;12.21;87.75
71175;DHT22;58876;51.994;4.472;2024-02-16T09:52:28;12.22;87.91
71175;DHT22;58876;51.994;4.472;2024-02-16T09:54:53;11.97;88.72
71175;DHT22;58876;51.994;4.472;2024-02-16T09:57:19;11.90;89.24
71175;DHT22;58876;51.994;4.472;2024-02-16T09:59:44;11.86;89.47
71175;DHT22;58876;51.994;4.472;2024-02-16T10:02:10;11.80;89.84
71175;DHT22;58876;51.994;4.472;2024-02-16T10:04:36;11.84;90.07
71175;DHT22;58876;51.994;4.472;2024-02-16T10:07:01;11.83;89.97
71175;DHT22;58876;51.994;4.472;2024-02-16T10:09:29;11.84;90.26
71175;DHT22;58876;51.994;4.472;2024-02-16T10:11:54;11.81;90.10
71175;DHT22;58876;51.994;4.472;2024-02-16T10:14:20;12.00;90.22
71175;DHT22;58876;51.994;4.472;2024-02-16T10:17:02;11.98;90.01
71175;DHT22;58876;51.994;4.472;2024-02-16T10:19:30;12.16;89.95
71175;DHT22;58876;51.994;4.472;2024-02-16T10:22:11;12.08;89.46
71175;DHT22;58876;51.994;4.472;2024-02-16T10:24:38;12.05;89.57
71175;DHT22;58876;51.994;4.472;2024-02-16T10:27:17;12.04;89.48
71175;DHT22;58876;51.994;4.472;2024-02-16T10:29:47;11.80;89.98
71175;DHT22;58876;51.994;4.472;2024-02-16T10:32:15;11.79;90.26
71175;DHT22;58876;51.994;4.472;2024-02-16T10:34:41;11.79;90.60
71175;DHT22;58876;51.994;4.472;2024-02-16T10:37:09;11.95;90.28
71175;DHT22;58876;51.994;4.472;2024-02-16T10:39:35;12.05;90.14
71175;DHT22;58876;51.994;4.472;2024-02-16T10:42:04;12.08;89.95
71175;DHT22;58876;51.994;4.472;2024-02-16T10:44:34;11.93;90.01
71175;DHT22;58876;51.994;4.472;2024-02-16T10:47:00;11.93;89.89
71175;DHT22;58876;51.994;4.472;2024-02-16T10:49:26;11.74;90.29
71175;DHT22;58876;51.994;4.472;2024-02-16T10:51:55;11.79;90.49
71175;DHT22;58876;51.994;4.472;2024-02-16T10:54:26;11.90;90.57
71175;DHT22;58876;51.994;4.472;2024-02-16T10:56:54;12.10;90.45
71175;DHT22;58876;51.994;4.472;2024-02-16T10:59:22;12.21;90.06
71175;DHT22;58876;51.994;4.472;2024-02-16T11:02:03;12.31;89.68
71175;DHT22;58876;51.994;4.472;2024-02-16T11:04:39;12.25;89.14
71175;DHT22;58876;51.994;4.472;2024-02-16T11:07:31;12.20;89.55
71175;DHT22;58876;51.994;4.472;2024-02-16T11:10:02;12.21;89.37
71175;DHT22;58876;51.994;4.472;2024-02-16T11:12:33;12.04;89.15
71175;DHT22;58876;51.994;4.472;2024-02-16T11:15:00;12.07;89.33
71175;DHT22;58876;51.994;4.472;2024-02-16T11:17:26;11.94;89.29
71175;DHT22;58876;51.994;4.472;2024-02-16T11:19:54;11.98;89.49
71175;DHT22;58876;51.994;4.472;2024-02-16T11:22:27;12.07;89.27
71175;DHT22;58876;51.994;4.472;2024-02-16T11:24:54;12.05;89.27
71175;DHT22;58876;51.994;4.472;2024-02-16T11:27:20;12.27;89.20
71175;DHT22;58876;51.994;4.472;2024-02-16T11:29:47;12.29;89.06
71175;DHT22;58876;51.994;4.472;2024-02-16T11:32:13;12.22;88.99
71175;DHT22;58876;51.994;4.472;2024-02-16T11:34:38;12.37;88.93
71175;DHT22;58876;51.994;4.472;2024-02-16T11:37:05;12.37;88.79
71175;DHT22;58876;51.994;4.472;2024-02-16T11:39:30;12.60;88.57
71175;DHT22;58876;51.994;4.472;2024-02-16T11:44:33;12.69;88.59
71175;DHT22;58876;51.994;4.472;2024-02-16T11:47:06;12.56;88.28
71175;DHT22;58876;51.994;4.472;2024-02-16T11:49:36;12.42;88.38
71175;DHT22;58876;51.994;4.472;2024-02-16T11:52:04;12.46;88.70
71175;DHT22;58876;51.994;4.472;2024-02-16T11:54:33;12.62;88.61
71175;DHT22;58876;51.994;4.472;2024-02-16T11:56:58;12.66;88.28
71175;DHT22;58876;51.994;4.472;2024-02-16T11:59:24;12.69;88.13
71175;DHT22;58876;51.994;4.472;2024-02-16T12:01:55;12.92;87.82
71175;DHT22;58876;51.994;4.472;2024-02-16T12:04:26;12.87;87.33
71175;DHT22;58876;51.994;4.472;2024-02-16T12:06:55;12.92;87.30
71175;DHT22;58876;51.994;4.472;2024-02-16T12:09:21;13.07;87.12
71175;DHT22;58876;51.994;4.472;2024-02-16T12:11:48;13.24;87.00
71175;DHT22;58876;51.994;4.472;2024-02-16T12:14:16;13.10;86.91
71175;DHT22;58876;51.994;4.472;2024-02-16T12:16:41;13.07;86.78
71175;DHT22;58876;51.994;4.472;2024-02-16T12:19:07;13.00;87.14
71175;DHT22;58876;51.994;4.472;2024-02-16T12:21:38;13.06;87.32
71175;DHT22;58876;51.994;4.472;2024-02-16T12:24:04;12.92;87.01
71175;DHT22;58876;51.994;4.472;2024-02-16T12:26:32;13.04;87.51
71175;DHT22;58876;51.994;4.472;2024-02-16T12:28:57;13.04;86.86
71175;DHT22;58876;51.994;4.472;2024-02-16T12:31:26;12.86;87.31
71175;DHT22;58876;51.994;4.472;2024-02-16T12:33:52;12.83;87.58
71175;DHT22;58876;51.994;4.472;2024-02-16T12:36:17;12.79;87.62
71175;DHT22;58876;51.994;4.472;2024-02-16T12:38:43;12.70;87.51
71175;DHT22;58876;51.994;4.472;2024-02-16T12:41:09;12.95;87.72
71175;DHT22;58876;51.994;4.472;2024-02-16T12:43:34;12.90;86.94
71175;DHT22;58876;51.994;4.472;2024-02-16T12:46:00;12.89;87.37
71175;DHT22;58876;51.994;4.472;2024-02-16T12:48:28;12.95;87.26
71175;DHT22;58876;51.994;4.472;2024-02-16T12:50:54;12.97;86.83
71175;DHT22;58876;51.994;4.472;2024-02-16T12:53:19;13.07;87.07
71175;DHT22;58876;51.994;4.472;2024-02-16T12:55:46;13.16;86.69
71175;DHT22;58876;51.994;4.472;2024-02-16T12:58:13;13.17;86.50
71175;DHT22;58876;51.994;4.472;2024-02-16T13:00:38;13.20;86.02
71175;DHT22;58876;51.994;4.472;2024-02-16T13:03:04;13.18;86.01
71175;DHT22;58876;51.994;4.472;2024-02-16T13:05:32;13.23;85.84
71175;DHT22;58876;51.994;4.472;2024-02-16T13:07:58;13.33;86.28
71175;DHT22;58876;51.994;4.472;2024-02-16T13:10:24;13.27;85.74
71175;DHT22;58876;51.994;4.472;2024-02-16T13:12:49;13.48;85.96
71175;DHT22;58876;51.994;4.472;2024-02-16T13:15:14;13.64;85.38
71175;DHT22;58876;51.994;4.472;2024-02-16T13:17:40;13.69;85.00
71175;DHT22;58876;51.994;4.472;2024-02-16T13:20:06;13.64;84.67
71175;DHT22;58876;51.994;4.472;2024-02-16T13:22:33;13.62;84.85
71175;DHT22;58876;51.994;4.472;2024-02-16T13:24:59;13.68;84.32
71175;DHT22;58876;51.994;4.472;2024-02-16T13:27:27;13.69;84.39
71175;DHT22;58876;51.994;4.472;2024-02-16T13:29:53;13.61;84.09
71175;DHT22;58876;51.994;4.472;2024-02-16T13:32:19;13.71;84.09
71175;DHT22;58876;51.994;4.472;2024-02-16T13:34:44;13.75;83.71
71175;DHT22;58876;51.994;4.472;2024-02-16T13:37:10;13.65;83.94
71175;DHT22;58876;51.994;4.472;2024-02-16T13:39:35;13.54;83.68
71175;DHT22;58876;51.994;4.472;2024-02-16T13:42:01;13.64;83.76
71175;DHT22;58876;51.994;4.472;2024-02-16T13:44:27;13.64;83.53
71175;DHT22;58876;51.994;4.472;2024-02-16T13:46:52;13.65;83.53
71175;DHT22;58876;51.994;4.472;2024-02-16T13:49:18;13.71;83.18
71175;DHT22;58876;51.994;4.472;2024-02-16T13:51:43;13.72;83.45
71175;DHT22;58876;51.994;4.472;2024-02-16T13:54:10;13.92;82.95
71175;DHT22;58876;51.994;4.472;2024-02-16T13:56:36;13.68;82.97
71175;DHT22;58876;51.994;4.472;2024-02-16T13:59:04;13.86;83.54
71175;DHT22;58876;51.994;4.472;2024-02-16T14:01:36;13.85;82.83
71175;DHT22;58876;51.994;4.472;2024-02-16T14:04:03;13.55;82.82
71175;DHT22;58876;51.994;4.472;2024-02-16T14:06:28;13.51;83.50
71175;DHT22;58876;51.994;4.472;2024-02-16T14:08:54;13.58;83.11
71175;DHT22;58876;51.994;4.472;2024-02-16T14:11:21;13.51;83.02
71175;DHT22;58876;51.994;4.472;2024-02-16T14:13:48;13.47;83.53
71175;DHT22;58876;51.994;4.472;2024-02-16T14:16:14;13.47;83.37
71175;DHT22;58876;51.994;4.472;2024-02-16T14:18:39;13.57;83.05
71175;DHT22;58876;51.994;4.472;2024-02-16T14:21:05;13.57;82.81
71175;DHT22;58876;51.994;4.472;2024-02-16T14:23:31;13.65;82.82
71175;DHT22;58876;51.994;4.472;2024-02-16T14:25:57;13.71;82.35
71175;DHT22;58876;51.994;4.472;2024-02-16T14:28:23;13.69;82.36
71175;DHT22;58876;51.994;4.472;2024-02-16T14:30:48;13.68;81.80
71175;DHT22;58876;51.994;4.472;2024-02-16T14:33:14;13.64;81.87
71175;DHT22;58876;51.994;4.472;2024-02-16T14:35:43;13.59;82.65
71175;DHT22;58876;51.994;4.472;2024-02-16T14:38:09;13.68;82.65
71175;DHT22;58876;51.994;4.472;2024-02-16T14:40:35;13.71;82.40
71175;DHT22;58876;51.994;4.472;2024-02-16T14:43:01;13.79;82.39
71175;DHT22;58876;51.994;4.472;2024-02-16T14:45:27;13.74;82.06
71175;DHT22;58876;51.994;4.472;2024-02-16T14:47:52;13.64;82.35
71175;DHT22;58876;51.994;4.472;2024-02-16T14:50:18;13.51;82.43
71175;DHT22;58876;51.994;4.472;2024-02-16T14:52:44;13.36;83.38
71175;DHT22;58876;51.994;4.472;2024-02-16T14:55:11;13.37;82.79
71175;DHT22;58876;51.994;4.472;2024-02-16T14:57:42;13.51;82.25
71175;DHT22;58876;51.994;4.472;2024-02-16T15:00:09;13.48;82.21
71175;DHT22;58876;51.994;4.472;2024-02-16T15:02:36;13.50;82.63
71175;DHT22;58876;51.994;4.472;2024-02-16T15:05:04;13.61;82.05
71175;DHT22;58876;51.994;4.472;2024-02-16T15:07:33;13.59;82.15
71175;DHT22;58876;51.994;4.472;2024-02-16T15:09:58;13.69;81.62
71175;DHT22;58876;51.994;4.472;2024-02-16T15:12:24;13.71;81.82
71175;DHT22;58876;51.994;4.472;2024-02-16T15:14:50;13.65;81.67
71175;DHT22;58876;51.994;4.472;2024-02-16T15:17:16;13.83;81.44
71175;DHT22;58876;51.994;4.472;2024-02-16T15:19:42;13.65;81.28
71175;DHT22;58876;51.994;4.472;2024-02-16T15:22:08;13.41;81.36
71175;DHT22;58876;51.994;4.472;2024-02-16T15:24:33;13.46;81.02
71175;DHT22;58876;51.994;4.472;2024-02-16T15:26:59;13.30;81.54
71175;DHT22;58876;51.994;4.472;2024-02-16T15:29:29;13.33;81.35